createdAt,value
2022-09-07T00:02:00.690Z,98722.38
2022-09-07T00:04:30.161Z,98804.03
2022-09-07T00:06:59.570Z,98801.28
2022-09-07T00:09:30.506Z,98793.28
2022-09-07T00:11:59.803Z,98787.72
2022-09-07T00:14:29.085Z,98785.84
2022-09-07T00:16:58.375Z,98718.72
2022-09-07T00:19:30.805Z,98751.41
2022-09-07T00:22:00.088Z,98699.44
2022-09-07T00:24:32.535Z,98698.72
2022-09-07T00:27:01.880Z,98764.09
2022-09-07T00:29:31.260Z,98754.66
2022-09-07T00:32:00.498Z,98748.88
2022-09-07T00:34:29.815Z,98705.41
2022-09-07T00:36:59.025Z,98710.34
2022-09-07T00:39:30.125Z,98738.97
2022-09-07T00:41:59.493Z,98675.22
2022-09-07T00:45:04.208Z,98688.63
2022-09-07T00:47:39.906Z,98671.13
2022-09-07T00:50:11.004Z,98752.03
2022-09-07T00:52:42.959Z,98741.13
2022-09-07T00:55:18.748Z,98698.88
2022-09-07T00:57:49.755Z,98707.66
2022-09-07T01:00:19.529Z,98701.00
2022-09-07T01:02:50.855Z,98625.72
2022-09-07T01:05:26.449Z,98704.22
2022-09-07T01:07:56.754Z,98709.63
2022-09-07T01:10:32.336Z,98624.75
2022-09-07T01:13:01.982Z,98689.41
2022-09-07T01:15:41.468Z,98655.22
2022-09-07T01:18:17.262Z,98637.31
2022-09-07T01:21:02.182Z,98690.09
2022-09-07T01:23:59.531Z,98725.72
2022-09-07T01:27:13.669Z,98648.91
2022-09-07T01:29:54.658Z,98633.97
2022-09-07T01:32:33.275Z,98659.41
2022-09-07T01:35:07.241Z,98588.25
2022-09-07T01:37:55.033Z,98635.53
2022-09-07T01:40:36.479Z,98595.38
2022-09-07T01:43:11.965Z,98649.63
2022-09-07T01:45:46.674Z,98581.63
2022-09-07T01:48:20.820Z,98646.13
2022-09-07T01:50:54.402Z,98591.50
2022-09-07T01:53:30.095Z,98588.69
2022-09-07T01:56:00.952Z,98646.19
2022-09-07T01:58:34.553Z,98569.84
2022-09-07T02:01:09.955Z,98627.50
2022-09-07T02:03:46.879Z,98583.00
2022-09-07T02:06:22.039Z,98593.34
2022-09-07T02:08:56.728Z,98637.84
2022-09-07T02:11:32.932Z,98572.41
2022-09-07T02:14:07.017Z,98618.00
2022-09-07T02:16:46.151Z,98532.69
2022-09-07T02:19:19.700Z,98581.13
2022-09-07T02:21:53.592Z,98581.06
2022-09-07T02:24:27.721Z,98548.00
2022-09-07T02:27:00.706Z,98492.22
2022-09-07T02:29:31.096Z,98480.16
2022-09-07T02:32:02.244Z,98545.72
2022-09-07T02:34:33.402Z,98541.03
2022-09-07T02:37:05.153Z,98495.03
2022-09-07T02:39:35.355Z,98542.31
2022-09-07T02:42:04.752Z,98541.22
2022-09-07T02:44:55.752Z,98524.97
2022-09-07T02:52:03.783Z,98487.63
2022-09-07T02:54:49.558Z,98466.44
2022-09-07T02:57:29.355Z,98510.31
2022-09-07T03:00:26.655Z,98532.59
2022-09-07T03:03:19.614Z,98476.09
2022-09-07T03:05:56.989Z,98482.28
2022-09-07T03:08:32.231Z,98495.41
2022-09-07T03:11:02.691Z,98521.00
2022-09-07T03:13:33.321Z,98468.50
2022-09-07T03:16:02.749Z,98522.66
2022-09-07T03:18:33.889Z,98521.03
2022-09-07T03:21:06.498Z,98491.84
2022-09-07T03:23:39.043Z,98471.50
2022-09-07T03:26:10.528Z,98431.94
2022-09-07T03:28:39.791Z,98462.47
2022-09-07T03:31:09.095Z,98503.72
2022-09-07T03:33:39.919Z,98481.59
2022-09-07T03:36:09.460Z,98451.88
2022-09-07T03:38:38.749Z,98497.63
2022-09-07T03:41:10.215Z,98497.75
2022-09-07T03:43:39.492Z,98420.28
2022-09-07T03:46:10.860Z,98411.34
2022-09-07T03:48:41.669Z,98407.13
2022-09-07T03:51:12.964Z,98375.03
2022-09-07T03:53:44.261Z,98399.75
2022-09-07T03:56:15.124Z,98368.25
2022-09-07T03:58:44.447Z,98395.03
2022-09-07T04:01:17.520Z,98399.41
2022-09-07T04:03:49.174Z,98493.97
2022-09-07T04:06:19.202Z,98491.41
2022-09-07T04:08:48.511Z,98451.97
2022-09-07T04:11:20.047Z,98467.59
2022-09-07T04:13:49.430Z,98441.13
2022-09-07T04:16:21.108Z,98420.44
2022-09-07T04:18:55.165Z,98371.75
2022-09-07T04:21:25.413Z,98438.66
2022-09-07T04:23:55.270Z,98359.78
2022-09-07T04:26:26.086Z,98377.53
2022-09-07T04:28:56.157Z,98341.22
2022-09-07T04:31:26.048Z,98324.13
2022-09-07T04:33:57.370Z,98382.34
2022-09-07T04:36:28.615Z,98380.25
2022-09-07T04:38:58.667Z,98336.66
2022-09-07T04:41:28.964Z,98352.16
2022-09-07T04:43:59.918Z,98329.31
2022-09-07T04:46:30.825Z,98322.16
2022-09-07T04:49:03.178Z,98333.19
2022-09-07T04:51:34.001Z,98318.50
2022-09-07T04:54:04.442Z,98293.88
2022-09-07T04:56:34.167Z,98308.94
2022-09-07T04:59:04.084Z,98306.19
2022-09-07T05:01:33.453Z,98379.47
2022-09-07T05:04:05.469Z,98298.34
2022-09-07T05:06:34.862Z,98363.00
2022-09-07T05:09:04.242Z,98307.19
2022-09-07T05:11:35.074Z,98265.63
2022-09-07T05:14:05.447Z,98235.03
2022-09-07T05:16:34.798Z,98342.00
2022-09-07T05:19:07.434Z,98300.19
2022-09-07T05:21:37.473Z,98349.28
2022-09-07T05:24:07.639Z,98339.59
2022-09-07T05:26:40.222Z,98314.75
2022-09-07T05:31:59.490Z,98342.94
2022-09-07T05:34:30.761Z,98295.19
2022-09-07T05:37:00.772Z,98324.91
2022-09-07T05:39:30.331Z,98329.69
2022-09-07T05:41:59.690Z,98312.88
2022-09-07T05:44:45.059Z,98240.00
2022-09-07T05:47:15.318Z,98243.50
2022-09-07T05:49:46.099Z,98232.19
2022-09-07T05:52:15.404Z,98278.72
2022-09-07T05:54:44.622Z,98204.88
2022-09-07T05:57:14.294Z,98210.47
2022-09-07T05:59:44.607Z,98268.56
2022-09-07T06:02:16.377Z,98280.50
2022-09-07T06:04:48.050Z,98238.00
2022-09-07T06:07:22.170Z,98292.41
2022-09-07T06:12:44.409Z,98209.84
2022-09-07T06:15:18.185Z,98223.47
2022-09-07T06:17:47.627Z,98220.97
2022-09-07T06:20:19.761Z,98263.69
2022-09-07T06:22:49.045Z,98243.38
2022-09-07T06:25:18.523Z,98201.28
2022-09-07T06:27:50.471Z,98264.41
2022-09-07T06:30:19.931Z,98234.66
2022-09-07T06:32:49.722Z,98236.13
2022-09-07T06:35:20.595Z,98109.03
2022-09-07T06:37:49.909Z,98201.84
2022-09-07T06:40:20.312Z,98213.91
2022-09-07T06:42:50.675Z,98181.44
2022-09-07T06:45:20.021Z,98249.56
2022-09-07T06:47:49.386Z,98232.28
2022-09-07T06:50:20.280Z,98222.91
2022-09-07T06:55:45.735Z,98216.47
2022-09-07T06:58:15.043Z,98217.28
2022-09-07T07:00:44.462Z,98159.25
2022-09-07T07:03:15.391Z,98200.44
2022-09-07T07:06:15.934Z,98197.09
2022-09-07T07:08:47.974Z,98207.09
2022-09-07T07:11:18.197Z,98213.34
2022-09-07T07:13:47.688Z,98209.81
2022-09-07T07:16:19.169Z,98220.00
2022-09-07T07:18:52.849Z,98192.75
2022-09-07T07:21:48.570Z,98235.66
2022-09-07T07:24:21.147Z,98128.22
2022-09-07T07:26:53.036Z,98199.94
2022-09-07T07:29:27.971Z,98144.38
2022-09-07T07:31:58.476Z,98186.78
2022-09-07T07:34:27.902Z,98210.56
2022-09-07T07:36:58.879Z,98185.81
2022-09-07T07:42:17.695Z,98202.66
2022-09-07T07:44:47.349Z,98135.22
2022-09-07T07:47:18.883Z,98165.38
2022-09-07T07:50:30.460Z,98137.88
2022-09-07T07:52:50.272Z,98025.00
2022-09-07T07:58:09.062Z,98084.63
2022-09-07T08:00:53.888Z,98130.69
2022-09-07T08:03:26.885Z,98145.47
2022-09-07T08:05:56.817Z,98116.31
2022-09-07T08:08:28.422Z,98116.22
2022-09-07T08:10:57.737Z,98158.41
2022-09-07T08:13:27.023Z,98134.72
2022-09-07T08:16:03.245Z,98146.94
2022-09-07T08:18:32.664Z,98158.78
2022-09-07T08:21:02.714Z,98068.56
2022-09-07T08:23:34.203Z,98120.34
2022-09-07T08:26:03.846Z,98115.78
2022-09-07T08:28:34.902Z,98079.53
2022-09-07T08:31:07.784Z,98090.78
2022-09-07T08:33:38.211Z,98038.06
2022-09-07T08:36:10.271Z,98127.63
2022-09-07T08:38:41.580Z,98122.69
2022-09-07T08:41:35.441Z,98171.00
2022-09-07T08:44:07.116Z,98090.91
2022-09-07T08:46:42.904Z,98191.97
2022-09-07T08:49:20.908Z,98214.06
2022-09-07T08:51:55.425Z,98210.31
2022-09-07T08:54:29.121Z,98191.28
2022-09-07T09:00:00.877Z,98176.84
2022-09-07T09:02:38.322Z,98203.94
2022-09-07T09:05:36.806Z,98167.75
2022-09-07T09:08:23.143Z,98229.97
2022-09-07T09:11:02.222Z,98166.91
2022-09-07T09:13:43.904Z,98160.06
2022-09-07T09:16:20.503Z,98151.13
2022-09-07T09:19:03.127Z,98161.31
2022-09-07T09:21:32.581Z,98196.22
2022-09-07T09:24:24.982Z,98113.41
2022-09-07T09:27:07.224Z,98251.59
2022-09-07T09:29:36.633Z,98198.72
2022-09-07T09:32:36.780Z,98214.19
2022-09-07T09:35:17.758Z,98212.69
2022-09-07T09:37:49.418Z,98218.03
2022-09-07T09:40:32.536Z,98222.41
2022-09-07T09:43:09.411Z,98220.09
2022-09-07T09:48:40.507Z,98194.03
2022-09-07T09:54:06.345Z,98139.19
2022-09-07T09:56:41.611Z,98140.78
2022-09-07T10:05:29.176Z,98209.97
2022-09-07T10:07:58.994Z,98199.66
2022-09-07T10:10:30.009Z,98130.19
2022-09-07T10:13:00.103Z,98212.38
2022-09-07T10:15:40.416Z,98136.97
2022-09-07T10:18:21.782Z,98115.88
2022-09-07T10:20:55.812Z,98186.75
2022-09-07T10:23:29.719Z,98202.22
2022-09-07T10:25:59.138Z,98208.47
2022-09-07T10:29:06.320Z,98200.31
2022-09-07T10:31:26.295Z,98173.03
2022-09-07T10:37:02.888Z,98232.78
2022-09-07T10:39:41.972Z,98192.84
2022-09-07T10:42:29.487Z,98251.28
2022-09-07T10:45:13.468Z,98243.69
2022-09-07T10:47:57.374Z,98239.78
2022-09-07T10:50:33.099Z,98233.16
2022-09-07T10:53:40.656Z,98221.09
2022-09-07T10:56:15.085Z,98212.63
2022-09-07T10:59:02.786Z,98215.38
2022-09-07T11:01:44.802Z,98222.13
2022-09-07T11:04:34.947Z,98214.13
2022-09-07T11:07:15.768Z,98213.66
2022-09-07T11:10:01.451Z,98231.56
2022-09-07T11:12:35.500Z,98234.66
2022-09-07T11:15:16.250Z,98217.00
2022-09-07T11:17:53.242Z,98204.91
2022-09-07T11:20:31.600Z,98201.47
2022-09-07T11:23:11.342Z,98210.28
2022-09-07T11:25:48.028Z,98203.34
2022-09-07T11:28:23.019Z,98221.38
2022-09-07T11:31:00.281Z,98211.34
2022-09-07T11:33:36.319Z,98211.53
2022-09-07T11:36:13.309Z,98200.66
2022-09-07T11:38:46.715Z,98203.66
2022-09-07T11:41:23.963Z,98202.50
2022-09-07T11:44:02.733Z,98209.91
2022-09-07T11:46:38.111Z,98187.13
2022-09-07T11:49:20.047Z,98182.41
2022-09-07T11:51:55.386Z,98185.19
2022-09-07T11:54:49.240Z,98202.88
2022-09-07T11:57:38.662Z,98150.91
2022-09-07T12:00:14.349Z,98206.03
2022-09-07T12:03:12.700Z,98124.09
2022-09-07T12:06:13.045Z,98208.75
2022-09-07T12:08:58.869Z,98196.91
2022-09-07T12:11:56.174Z,98205.81
2022-09-07T12:14:37.869Z,98206.47
2022-09-07T12:17:23.462Z,98213.53
2022-09-07T12:20:15.866Z,98209.81
2022-09-07T12:23:03.717Z,98211.28
2022-09-07T12:25:36.122Z,98231.06
2022-09-07T12:28:05.627Z,98199.38
2022-09-07T12:30:59.259Z,98213.16
2022-09-07T12:33:38.678Z,98203.56
2022-09-07T12:36:51.661Z,98214.38
2022-09-07T12:39:25.680Z,98198.16
2022-09-07T12:42:32.929Z,98194.63
2022-09-07T12:45:35.569Z,98193.59
2022-09-07T12:48:12.820Z,98152.41
2022-09-07T12:50:51.862Z,98180.28
2022-09-07T12:53:32.621Z,98191.91
2022-09-07T12:56:27.454Z,98175.69
2022-09-07T12:59:20.260Z,98186.28
2022-09-07T13:02:01.384Z,98165.28
2022-09-07T13:04:52.825Z,98194.41
2022-09-07T13:07:42.083Z,98194.00
2022-09-07T13:10:30.892Z,98165.28
2022-09-07T13:13:05.663Z,98142.38
2022-09-07T13:15:42.715Z,98196.31
2022-09-07T13:18:15.678Z,98167.16
2022-09-07T13:20:45.144Z,98200.22
2022-09-07T13:23:31.996Z,98203.38
2022-09-07T13:26:02.606Z,98175.69
2022-09-07T13:28:42.103Z,98217.94
2022-09-07T13:31:28.895Z,98204.41
2022-09-07T13:34:19.011Z,98203.53
2022-09-07T13:36:50.456Z,98205.59
2022-09-07T13:39:23.517Z,98245.78
2022-09-07T13:41:59.393Z,98239.34
2022-09-07T13:44:33.024Z,98226.38
2022-09-07T13:47:19.486Z,98244.03
2022-09-07T13:50:19.994Z,98252.97
2022-09-07T13:53:15.208Z,98268.72
2022-09-07T13:55:52.617Z,98251.41
2022-09-07T13:58:27.816Z,98270.06
2022-09-07T14:00:57.683Z,98272.34
2022-09-07T14:03:30.563Z,98283.00
2022-09-07T14:06:29.092Z,98294.19
2022-09-07T14:09:00.054Z,98281.47
2022-09-07T14:11:31.364Z,98286.50
2022-09-07T14:14:18.780Z,98263.34
2022-09-07T14:16:51.213Z,98277.72
2022-09-07T14:19:26.499Z,98281.06
2022-09-07T14:21:59.475Z,98313.50
2022-09-07T14:24:32.917Z,98313.59
2022-09-07T14:27:02.539Z,98326.09
2022-09-07T14:29:33.345Z,98354.25
2022-09-07T14:32:05.487Z,98316.91
2022-09-07T14:34:45.168Z,98348.75
2022-09-07T14:37:17.041Z,98367.31
2022-09-07T14:39:51.111Z,98282.69
2022-09-07T14:42:23.850Z,98355.91
2022-09-07T14:45:13.561Z,98329.63
2022-09-07T14:47:42.868Z,98310.84
2022-09-07T14:50:22.286Z,98358.25
2022-09-07T14:55:44.570Z,98387.56
2022-09-07T14:58:24.307Z,98396.19
2022-09-07T15:03:56.673Z,98409.03
2022-09-07T15:07:06.091Z,98416.38
2022-09-07T15:09:38.401Z,98377.38
2022-09-07T15:12:27.229Z,98360.09
2022-09-07T15:15:12.997Z,98361.84
2022-09-07T15:17:43.795Z,98381.06
2022-09-07T15:20:37.162Z,98404.94
2022-09-07T15:23:11.182Z,98381.97
2022-09-07T15:25:41.225Z,98340.94
2022-09-07T15:31:56.779Z,98393.50
2022-09-07T15:34:31.326Z,98325.50
2022-09-07T15:37:02.672Z,98383.09
2022-09-07T15:39:36.055Z,98393.69
2022-09-07T15:44:54.904Z,98415.03
2022-09-07T15:50:13.988Z,98428.06
2022-09-07T15:52:46.214Z,98437.00
2022-09-07T15:55:18.276Z,98415.50
2022-09-07T15:57:51.248Z,98400.38
2022-09-07T16:00:22.287Z,98429.25
2022-09-07T16:03:08.495Z,98438.75
2022-09-07T16:05:41.345Z,98365.34
2022-09-07T16:08:25.976Z,98437.56
2022-09-07T16:11:05.762Z,98447.50
2022-09-07T16:13:35.608Z,98423.63
2022-09-07T16:16:08.335Z,98443.69
2022-09-07T16:18:38.249Z,98421.94
2022-09-07T16:21:11.872Z,98436.69
2022-09-07T16:23:43.337Z,98346.78
2022-09-07T16:26:14.360Z,98432.69
2022-09-07T16:28:44.819Z,98372.75
2022-09-07T16:31:17.044Z,98410.81
2022-09-07T16:33:46.370Z,98454.09
2022-09-07T16:36:17.716Z,98475.25
2022-09-07T16:38:48.945Z,98390.09
2022-09-07T16:41:21.738Z,98487.81
2022-09-07T16:43:50.949Z,98446.16
2022-09-07T16:46:21.570Z,98548.03
2022-09-07T16:48:51.971Z,98502.63
2022-09-07T16:51:23.188Z,98540.75
2022-09-07T16:53:53.910Z,98499.66
2022-09-07T16:56:27.160Z,98498.31
2022-09-07T16:58:58.233Z,98576.69
2022-09-07T17:01:29.291Z,98580.41
2022-09-07T17:03:58.718Z,98571.84
2022-09-07T17:06:29.871Z,98596.19
2022-09-07T17:09:00.561Z,98617.34
2022-09-07T17:11:33.153Z,98525.50
2022-09-07T17:14:05.475Z,98601.78
2022-09-07T17:16:36.826Z,98561.59
2022-09-07T17:21:57.730Z,98555.53
2022-09-07T17:24:26.986Z,98626.75
2022-09-07T17:26:59.507Z,98631.63
2022-09-07T17:29:30.823Z,98641.81
2022-09-07T17:34:51.350Z,98650.47
2022-09-07T17:37:20.856Z,98555.31
2022-09-07T17:39:50.032Z,98636.31
2022-09-07T17:42:20.870Z,98645.03
2022-09-07T17:44:53.934Z,98653.88
2022-09-07T17:47:23.423Z,98526.88
2022-09-07T17:49:52.504Z,98593.28
2022-09-07T17:52:21.639Z,98603.06
2022-09-07T17:54:50.817Z,98583.50
2022-09-07T17:57:21.592Z,98633.44
2022-09-07T18:02:40.101Z,98615.63
2022-09-07T18:05:10.759Z,98631.50
2022-09-07T18:07:40.003Z,98600.91
2022-09-07T18:10:09.911Z,98594.88
2022-09-07T18:12:40.616Z,98673.00
2022-09-07T18:15:10.503Z,98635.00
2022-09-07T18:17:39.907Z,98595.94
2022-09-07T18:20:09.887Z,98617.50
2022-09-07T18:22:39.130Z,98694.53
2022-09-07T18:25:10.326Z,98632.06
2022-09-07T18:27:42.332Z,98680.97
2022-09-07T18:30:12.649Z,98612.13
2022-09-07T18:32:41.950Z,98699.97
2022-09-07T18:35:11.757Z,98684.19
2022-09-07T18:37:40.903Z,98636.66
2022-09-07T18:40:10.978Z,98705.09
2022-09-07T18:42:42.390Z,98670.63
2022-09-07T18:45:27.903Z,98626.34
2022-09-07T18:47:57.294Z,98714.50
2022-09-07T18:50:27.267Z,98617.75
2022-09-07T18:53:04.120Z,98684.03
2022-09-07T18:55:36.655Z,98709.97
2022-09-07T18:58:07.303Z,98646.81
2022-09-07T19:00:36.587Z,98615.25
2022-09-07T19:03:05.874Z,98651.94
2022-09-07T19:05:50.927Z,98712.06
2022-09-07T19:08:19.920Z,98739.91
2022-09-07T19:10:50.790Z,98664.53
2022-09-07T19:13:21.493Z,98658.00
2022-09-07T19:15:51.642Z,98749.00
2022-09-07T19:18:20.758Z,98652.06
2022-09-07T19:20:49.955Z,98757.81
2022-09-07T19:23:19.042Z,98698.72
2022-09-07T19:25:48.430Z,98672.03
2022-09-07T19:28:19.561Z,98760.59
2022-09-07T19:30:50.202Z,98775.53
2022-09-07T19:33:19.566Z,98784.38
2022-09-07T19:35:48.742Z,98729.44
2022-09-07T19:38:18.864Z,98830.53
2022-09-07T19:40:57.862Z,98781.16
2022-09-07T19:43:27.807Z,98721.56
2022-09-07T19:45:59.828Z,98816.88
2022-09-07T19:48:29.483Z,98824.44
2022-09-07T19:51:03.990Z,98816.88
2022-09-07T19:53:34.634Z,98841.75
2022-09-07T19:56:08.880Z,98828.69
2022-09-07T19:58:40.989Z,98846.81
2022-09-07T20:01:14.256Z,98713.88
2022-09-07T20:03:44.267Z,98860.88
2022-09-07T20:06:15.591Z,98861.44
2022-09-07T20:08:45.454Z,98798.25
2022-09-07T20:11:17.507Z,98770.34
2022-09-07T20:13:47.093Z,98868.97
2022-09-07T20:16:19.916Z,98864.19
2022-09-07T20:18:49.588Z,98774.72
2022-09-07T20:21:20.784Z,98889.00
2022-09-07T20:23:50.266Z,98894.03
2022-09-07T20:26:21.437Z,98908.78
2022-09-07T20:29:16.374Z,98904.81
2022-09-07T20:31:46.329Z,98805.69
2022-09-07T20:34:15.705Z,98867.31
2022-09-07T20:36:44.868Z,98930.16
2022-09-07T20:39:17.321Z,98885.78
2022-09-07T20:41:46.686Z,98947.88
2022-09-07T20:44:16.721Z,98856.13
2022-09-07T20:46:47.457Z,98927.75
2022-09-07T20:49:16.731Z,98955.16
2022-09-07T20:51:45.863Z,98974.75
2022-09-07T20:54:14.987Z,98931.81
2022-09-07T20:56:44.184Z,98912.59
2022-09-07T20:59:13.933Z,98914.56
2022-09-07T21:01:44.177Z,98908.06
2022-09-07T21:04:14.971Z,98999.88
2022-09-07T21:06:44.101Z,98922.69
2022-09-07T21:09:13.193Z,99001.09
2022-09-07T21:11:45.093Z,98999.13
2022-09-07T21:14:18.210Z,98976.28
2022-09-07T21:16:47.704Z,99026.84
2022-09-07T21:19:18.322Z,99000.81
2022-09-07T21:21:48.108Z,99034.09
2022-09-07T21:24:19.517Z,99031.91
2022-09-07T21:26:49.505Z,98949.22
2022-09-07T21:29:20.103Z,98981.19
2022-09-07T21:31:49.895Z,98995.63
2022-09-07T21:34:20.621Z,99005.31
2022-09-07T21:36:50.273Z,99064.38
2022-09-07T21:39:19.818Z,98975.59
2022-09-07T21:41:49.015Z,99081.00
2022-09-07T21:44:18.580Z,99101.25
2022-09-07T21:46:47.844Z,99090.34
2022-09-07T21:49:17.116Z,99029.25
2022-09-07T21:51:47.749Z,98984.63
2022-09-07T21:54:16.890Z,99105.00
2022-09-07T21:56:46.945Z,99095.94
2022-09-07T21:59:16.306Z,99055.41
2022-09-07T22:01:45.563Z,99029.41
2022-09-07T22:04:15.276Z,99110.34
2022-09-07T22:06:44.630Z,99031.25
2022-09-07T22:09:16.235Z,99091.72
2022-09-07T22:11:46.203Z,99134.50
2022-09-07T22:14:17.117Z,99139.72
2022-09-07T22:16:46.436Z,99055.38
2022-09-07T22:19:15.590Z,99137.09
2022-09-07T22:21:44.936Z,99173.50
2022-09-07T22:24:16.230Z,99164.28
2022-09-07T22:26:45.393Z,99170.00
2022-09-07T22:29:15.101Z,99168.72
2022-09-07T22:31:44.333Z,99178.88
2022-09-07T22:34:13.572Z,99154.69
2022-09-07T22:36:45.273Z,99183.22
2022-09-07T22:39:18.873Z,99170.97
2022-09-07T22:41:49.268Z,99163.94
2022-09-07T22:44:20.311Z,99172.00
2022-09-07T22:46:49.777Z,99159.91
2022-09-07T22:49:19.062Z,99182.84
2022-09-07T22:51:48.418Z,99088.59
2022-09-07T22:54:19.082Z,99051.50
2022-09-07T22:56:48.430Z,99140.84
2022-09-07T22:59:17.644Z,99166.44
2022-09-07T23:01:47.445Z,99137.19
2022-09-07T23:04:16.717Z,99186.69
2022-09-07T23:06:46.035Z,99152.66
2022-09-07T23:09:17.262Z,99241.53
2022-09-07T23:11:49.125Z,99226.81
2022-09-07T23:14:19.776Z,99132.72
2022-09-07T23:16:49.111Z,99205.16
2022-09-07T23:19:20.085Z,99243.09
2022-09-07T23:21:49.514Z,99194.44
2022-09-07T23:24:20.406Z,99166.75
2022-09-07T23:26:51.325Z,99160.13
2022-09-07T23:29:21.588Z,99207.41
2022-09-07T23:31:50.815Z,99252.22
2022-09-07T23:34:20.094Z,99232.28
2022-09-07T23:36:49.394Z,99254.50
2022-09-07T23:39:19.152Z,99275.09
2022-09-07T23:41:48.328Z,99275.50
2022-09-07T23:44:19.024Z,99205.09
2022-09-07T23:46:49.285Z,99196.41
2022-09-07T23:49:18.511Z,99257.34
2022-09-07T23:51:48.808Z,99227.78
2022-09-07T23:54:18.031Z,99207.22
2022-09-07T23:56:47.228Z,99272.06
2022-09-07T23:59:16.389Z,99237.28
